All Stations Radar Satellite Rainfall Station Map Enhanced Site
Observations: Wind Gusts Humidity Temperature    
Forecasts: Wind Gusts Humidity Temperature    

Mt. Soledad (578) Station Data (Station Map)

Red Flag Warning: No
Fire Weather Zone: 243
SDGE Region: Beach Cities
Lat/Lon: 32.814/-117.241

Observations

Time (PDT)Wind Spd/GustTempRHFuel Moisture
4/24 10:00amSW 4 G 863°75%-
4/24 9:50amS 3 G 763°76%-
4/24 9:40amSSW 3 G 763°76%-
4/24 9:30amS 2 G 662°76%-
4/24 9:20amS 3 G 763°75%-
4/24 9:10amSW 3 G 762°75%-
4/24 9:00amS 2 G 562°75%-
4/24 8:50amS 3 G 661°76%-
4/24 8:40amSSE 3 G 661°78%-
4/24 8:30amS 2 G 661°79%-
4/24 8:20amS 3 G 560°78%-
4/24 8:10amS 2 G 560°78%-
4/24 8:00amSSE 3 G 560°78%-
4/24 7:50amSE 2 G 459°78%-
4/24 7:40amESE 2 G 459°77%-
4/24 7:30amE 1 G 358°77%-
4/24 7:20amE 2 G 258°78%-
4/24 7:10amE 1 G 257°80%-
4/24 7:00amE 1 G 256°82%-
4/24 6:50amNE 1 G 156°83%-
4/24 6:40amNNE 1 G 255°84%-
4/24 6:30amNE 2 G 355°83%-
4/24 6:20amNE 1 G 254°85%-
4/24 6:10amNE 1 G 254°85%-
4/24 6:00amENE 1 G 254°84%-
4/24 5:50amNE 1 G 254°84%-
4/24 5:40amNNE 1 G 254°84%-
4/24 5:30amENE 2 G 355°85%-
4/24 5:20amNE 1 G 255°88%-
4/24 5:10amNNE 1 G 255°89%-
4/24 5:00amNNE 1 G 355°89%-
4/24 4:50amNE 3 G 456°90%-
4/24 4:40amNE 3 G 456°90%-
4/24 4:30amNE 2 G 456°88%-
4/24 4:20amNE 0 G 157°87%-
4/24 4:10amN 1 G 257°87%-
4/24 4:00amNNW 2 G 257°86%-
4/24 3:50amNW 1 G 257°85%-
4/24 3:40amNW 2 G 257°85%-
4/24 3:30amNW 2 G 258°84%-
4/24 3:20amWNW 1 G 258°85%-
4/24 3:10amNW 0 G 158°85%-
4/24 3:00amWNW 1 G 158°85%-
4/24 2:50amWNW 1 G 258°85%-
4/24 2:40amWNW 2 G 258°85%-
4/24 2:30amWNW 1 G 158°85%-
4/24 2:20amWNW 1 G 258°84%-
4/24 2:10amW 1 G 258°83%-
4/24 2:00amWSW 1 G 258°84%-
4/24 1:50amNNW 1 G 257°84%-
4/24 1:40amNNW 1 G 157°84%-
4/24 1:30amNNW 1 G 257°84%-
4/24 1:20amNNE 0 G 157°84%-
4/24 1:10amNW 0 G 157°84%-
4/24 1:00amN 0 G 057°83%-
4/24 12:50amNW 0 G 257°83%-
4/24 12:40amN 3 G 458°82%-
4/24 12:30amN 4 G 558°82%-
4/24 12:20amN 5 G 658°82%-
4/24 12:10amNNE 5 G 758°82%-
4/24 12:00amNNE 5 G 758°82%-
4/23 11:50pmNNE 5 G 658°82%-
4/23 11:40pmNNE 5 G 658°82%-
4/23 11:30pmNNE 5 G 658°81%-
4/23 11:20pmNNE 5 G 559°80%-
4/23 11:10pmNNE 4 G 659°79%-
4/23 11:00pmNNE 5 G 659°77%-
4/23 10:50pmNNE 5 G 658°77%-
4/23 10:40pmNNE 5 G 658°76%-
4/23 10:30pmNNE 5 G 658°76%-
4/23 10:20pmNNE 5 G 659°75%-
4/23 10:10pmNNE 4 G 559°74%-
4/23 10:00pmN 3 G 459°73%-
4/23 9:50pmN 3 G 459°74%-
4/23 9:40pmNNW 1 G 259°74%-
4/23 9:30pmNW 2 G 359°75%-
4/23 9:20pmNW 2 G 359°75%-
4/23 9:10pmNW 2 G 359°75%-
4/23 9:00pmNW 2 G 360°75%-
4/23 8:50pmNW 2 G 360°75%-
4/23 8:40pmNNW 2 G 360°76%-
4/23 8:30pmNNW 1 G 360°77%-
4/23 8:20pmN 2 G 360°77%-
4/23 8:10pmNNW 2 G 460°77%-
4/23 8:00pmWNW 1 G 560°76%-
4/23 7:50pmWNW 1 G 460°75%-
4/23 7:40pmNW 3 G 761°75%-
4/23 7:30pmNW 3 G 761°76%-
4/23 7:20pmWNW 4 G 861°76%-
4/23 7:10pmWNW 5 G 1161°77%-
4/23 7:00pmWNW 6 G 1062°75%-
4/23 6:50pmW 5 G 1162°74%-
4/23 6:40pmWNW 5 G 1062°70%-
4/23 6:30pmWNW 6 G 1163°68%-
4/23 6:20pmWNW 5 G 963°69%-
4/23 6:10pmWNW 5 G 964°68%-
4/23 6:00pmWNW 5 G 1064°66%-
4/23 5:50pmWNW 6 G 1064°64%-
4/23 5:40pmW 5 G 964°66%-
4/23 5:30pmW 5 G 1064°68%-
4/23 5:20pmNW 4 G 964°67%-
4/23 5:10pmWNW 6 G 1164°71%-
4/23 5:00pmWNW 5 G 1064°70%-
4/23 4:50pmWNW 7 G 1264°67%-
4/23 4:40pmWNW 7 G 1464°66%-
4/23 4:30pmW 5 G 1164°67%-
4/23 4:20pmW 5 G 964°66%-
4/23 4:10pmWNW 6 G 1264°64%-
4/23 4:00pmW 5 G 1165°66%-
4/23 3:50pmWNW 7 G 1365°66%-
4/23 3:40pmWNW 7 G 1264°68%-
4/23 3:30pmWNW 6 G 1164°67%-
4/23 3:20pmWNW 6 G 1265°66%-
4/23 3:10pmW 5 G 1265°66%-
4/23 3:00pmWSW 5 G 1365°67%-
4/23 2:50pmWSW 5 G 1264°69%-
4/23 2:40pmSW 5 G 1063°71%-
4/23 2:30pmSW 5 G 1163°71%-
4/23 2:20pmSW 5 G 1063°71%-
4/23 2:10pmSW 5 G 1264°70%-
4/23 2:00pmSW 5 G 1063°71%-
4/23 1:50pmSW 5 G 1463°72%-
4/23 1:40pmSW 5 G 1063°71%-
4/23 1:30pmSW 5 G 1164°68%-
4/23 1:20pmSW 5 G 1163°69%-
4/23 1:10pmSW 5 G 1163°69%-
4/23 1:00pmSW 5 G 1363°69%-
4/23 12:50pmSW 5 G 1162°69%-
4/23 12:40pmWSW 5 G 1063°68%-
4/23 12:30pmSW 5 G 1362°69%-
4/23 12:20pmSW 6 G 1162°68%-
4/23 12:10pmSW 6 G 1262°68%-
4/23 12:00pmSW 5 G 1262°67%-
4/23 11:50amSW 4 G 1062°66%-
4/23 11:40amSW 4 G 1061°68%-
4/23 11:30amSW 4 G 1162°68%-
4/23 11:20amSW 5 G 1162°68%-
4/23 11:10amSW 5 G 1162°68%-
4/23 11:00amSSW 5 G 1062°68%-
4/23 10:50amSW 4 G 1062°68%-
4/23 10:40amSW 4 G 862°67%-
4/23 10:30amSW 4 G 1062°67%-
4/23 10:20amSW 4 G 962°67%-
4/23 10:10amSW 4 G 962°67%-
4/23 10:00amSSW 4 G 761°67%-
4/23 9:50amSSW 4 G 962°66%-
4/23 9:40amESE 2 G 762°64%-
4/23 9:30amSE 3 G 661°64%-
4/23 9:20amSSE 4 G 861°66%-
4/23 9:10amSSE 4 G 860°66%-
4/23 9:00amSSE 4 G 660°67%-
4/23 8:50amSE 3 G 660°67%-
4/23 8:40amSSE 4 G 760°67%-
4/23 8:30amSE 3 G 660°68%-
4/23 8:20amSE 3 G 660°68%-
4/23 8:10amNE 2 G 459°69%-
4/23 8:00amE 3 G 560°69%-
4/23 7:50amE 3 G 759°71%-
4/23 7:40amESE 3 G 758°73%-
4/23 7:30amE 2 G 358°75%-
4/23 7:20amE 3 G 557°76%-
4/23 7:10amENE 2 G 457°78%-
4/23 7:00amNE 1 G 356°78%-
4/23 6:50amENE 2 G 456°79%-
4/23 6:40amENE 2 G 356°80%-
4/23 6:30amENE 2 G 456°81%-
4/23 6:20amNE 2 G 356°81%-
4/23 6:10amENE 2 G 355°81%-
4/23 6:00amNE 2 G 355°82%-